createdAt,value
2018-02-15T00:00:40.798Z,-2.70
2018-02-15T00:03:08.347Z,-2.80
2018-02-15T00:05:36.021Z,-2.70
2018-02-15T00:08:04.336Z,-2.80
2018-02-15T00:10:32.996Z,-2.80
2018-02-15T00:13:00.653Z,-2.80
2018-02-15T00:15:28.298Z,-2.80
2018-02-15T00:17:55.829Z,-2.80
2018-02-15T00:20:23.507Z,-2.90
2018-02-15T00:22:52.025Z,-2.90
2018-02-15T00:25:20.168Z,-2.90
2018-02-15T00:27:47.844Z,-2.90
2018-02-15T00:30:15.395Z,-3.00
2018-02-15T00:32:42.995Z,-2.90
2018-02-15T00:35:10.653Z,-2.90
2018-02-15T00:37:39.214Z,-2.90
2018-02-15T00:40:06.792Z,-3.00
2018-02-15T00:42:34.449Z,-3.10
2018-02-15T00:45:01.998Z,-2.90
2018-02-15T00:47:31.571Z,-3.00
2018-02-15T00:49:58.735Z,-3.10
2018-02-15T00:55:20.839Z,-2.90
2018-02-15T00:57:49.744Z,-2.90
2018-02-15T01:00:17.295Z,-2.90
2018-02-15T01:02:45.753Z,-2.80
2018-02-15T01:05:13.292Z,-2.90
2018-02-15T01:07:41.605Z,-2.70
2018-02-15T01:10:09.289Z,-2.90
2018-02-15T01:12:36.906Z,-2.90
2018-02-15T01:15:04.491Z,-2.90
2018-02-15T01:17:32.742Z,-3.00
2018-02-15T01:20:00.294Z,-3.00
2018-02-15T01:22:27.853Z,-3.10
2018-02-15T01:24:56.284Z,-3.20
2018-02-15T01:27:23.826Z,-3.20
2018-02-15T01:29:51.873Z,-3.20
2018-02-15T01:32:20.527Z,-3.40
2018-02-15T01:34:48.068Z,-3.50
2018-02-15T01:37:15.601Z,-3.50
2018-02-15T01:39:43.202Z,-3.50
2018-02-15T01:42:11.505Z,-3.50
2018-02-15T01:44:39.071Z,-3.50
2018-02-15T01:47:06.771Z,-3.50
2018-02-15T01:49:34.321Z,-3.50
2018-02-15T01:52:02.107Z,-3.60
2018-02-15T01:54:30.767Z,-3.60
2018-02-15T01:56:58.316Z,-3.60
2018-02-15T01:59:25.846Z,-3.60
2018-02-15T02:01:53.569Z,-3.60
2018-02-15T02:04:21.810Z,-3.60
2018-02-15T02:06:50.664Z,-3.50
2018-02-15T02:12:12.118Z,-3.50
2018-02-15T02:14:40.418Z,-3.50
2018-02-15T02:17:09.544Z,-3.50
2018-02-15T02:19:37.182Z,-3.40
2018-02-15T02:22:04.738Z,-3.50
2018-02-15T02:24:32.735Z,-3.60
2018-02-15T02:27:00.285Z,-3.60
2018-02-15T02:32:21.112Z,-3.70
2018-02-15T02:34:49.669Z,-3.80
2018-02-15T02:37:17.206Z,-3.90
2018-02-15T02:39:44.881Z,-3.90
2018-02-15T02:42:14.163Z,-3.80
2018-02-15T02:44:41.713Z,-3.80
2018-02-15T02:47:11.172Z,-3.80
2018-02-15T02:49:39.517Z,-3.90
2018-02-15T02:52:08.005Z,-3.90
2018-02-15T02:54:36.419Z,-3.90
2018-02-15T02:57:03.967Z,-3.90
2018-02-15T02:59:31.502Z,-3.90
2018-02-15T03:01:59.180Z,-3.90
2018-02-15T03:04:26.752Z,-3.90
2018-02-15T03:06:54.288Z,-3.90
2018-02-15T03:09:22.724Z,-4.00
2018-02-15T03:11:51.859Z,-4.00
2018-02-15T03:14:20.103Z,-4.00
2018-02-15T03:16:48.051Z,-3.90
2018-02-15T03:19:15.589Z,-3.90
2018-02-15T03:21:43.148Z,-3.90
2018-02-15T03:24:10.739Z,-4.00
2018-02-15T03:26:38.295Z,-4.00
2018-02-15T03:29:05.842Z,-4.10
2018-02-15T03:31:34.221Z,-4.10
2018-02-15T03:34:02.533Z,-4.10
2018-02-15T03:36:30.864Z,-4.00
2018-02-15T03:38:58.446Z,-4.10
2018-02-15T03:41:25.996Z,-4.00
2018-02-15T03:43:53.532Z,-4.00
2018-02-15T03:46:21.707Z,-4.00
2018-02-15T03:48:50.881Z,-4.10
2018-02-15T03:51:19.655Z,-4.10
2018-02-15T03:53:47.218Z,-4.10
2018-02-15T03:56:15.519Z,-4.30
2018-02-15T03:58:43.076Z,-4.30
2018-02-15T04:01:10.643Z,-4.30
2018-02-15T04:03:38.990Z,-4.30
2018-02-15T04:06:06.530Z,-4.30
2018-02-15T04:08:34.119Z,-4.30
2018-02-15T04:11:01.676Z,-4.30
2018-02-15T04:13:29.222Z,-4.30
2018-02-15T04:15:58.074Z,-4.10
2018-02-15T04:18:26.388Z,-4.00
2018-02-15T04:20:53.959Z,-4.00
2018-02-15T04:23:21.824Z,-3.80
2018-02-15T04:25:50.775Z,-3.70
2018-02-15T04:28:18.334Z,-3.70
2018-02-15T04:30:46.770Z,-3.70
2018-02-15T04:33:14.339Z,-3.70
2018-02-15T04:35:42.657Z,-3.70
2018-02-15T04:38:10.348Z,-3.80
2018-02-15T04:40:38.676Z,-3.80
2018-02-15T04:43:06.212Z,-3.80
2018-02-15T04:45:33.869Z,-3.80
2018-02-15T04:48:01.443Z,-3.90
2018-02-15T04:50:28.988Z,-4.00
2018-02-15T04:52:56.715Z,-4.20
2018-02-15T04:55:24.245Z,-4.20
2018-02-15T04:57:51.790Z,-4.30
2018-02-15T05:00:19.464Z,-4.30
2018-02-15T05:02:47.752Z,-4.40
2018-02-15T05:05:15.303Z,-4.40
2018-02-15T05:07:42.977Z,-4.40
2018-02-15T05:10:10.515Z,-4.30
2018-02-15T05:12:38.116Z,-4.20
2018-02-15T05:15:06.371Z,-4.10
2018-02-15T05:17:34.880Z,-4.00
2018-02-15T05:20:03.463Z,-3.80
2018-02-15T05:22:32.181Z,-3.80
2018-02-15T05:24:59.741Z,-3.70
2018-02-15T05:27:27.261Z,-3.60
2018-02-15T05:29:54.944Z,-3.60
2018-02-15T05:32:22.549Z,-3.40
2018-02-15T05:34:50.073Z,-3.40
2018-02-15T05:37:18.508Z,-3.30
2018-02-15T05:39:46.046Z,-3.30
2018-02-15T05:42:13.598Z,-3.20
2018-02-15T05:44:41.259Z,-3.20
2018-02-15T05:47:09.560Z,-3.30
2018-02-15T05:49:37.160Z,-3.40
2018-02-15T05:52:07.010Z,-3.40
2018-02-15T05:54:34.895Z,-3.40
2018-02-15T05:57:03.218Z,-3.40
2018-02-15T05:59:30.870Z,-3.40
2018-02-15T06:01:58.421Z,-3.30
2018-02-15T06:04:25.950Z,-3.20
2018-02-15T06:06:53.714Z,-3.20
2018-02-15T06:09:22.021Z,-3.00
2018-02-15T06:11:49.555Z,-3.00
2018-02-15T06:14:17.237Z,-3.00
2018-02-15T06:16:44.791Z,-3.00
2018-02-15T06:19:12.466Z,-3.00
2018-02-15T06:21:40.148Z,-3.00
2018-02-15T06:24:07.694Z,-3.00
2018-02-15T06:26:35.870Z,-3.10
2018-02-15T06:29:03.605Z,-3.00
2018-02-15T06:31:31.183Z,-3.10
2018-02-15T06:34:00.447Z,-3.20
2018-02-15T06:36:28.115Z,-3.20
2018-02-15T06:38:56.490Z,-3.30
2018-02-15T06:41:24.796Z,-3.20
2018-02-15T06:43:52.545Z,-3.20
2018-02-15T06:46:20.101Z,-3.30
2018-02-15T06:48:47.637Z,-3.20
2018-02-15T06:51:15.396Z,-3.10
2018-02-15T06:53:42.930Z,-3.20
2018-02-15T06:56:11.246Z,-3.20
2018-02-15T06:58:38.997Z,-3.20
2018-02-15T07:01:07.964Z,-3.10
2018-02-15T07:03:36.541Z,-3.10
2018-02-15T07:06:05.273Z,-2.90
2018-02-15T07:08:32.825Z,-2.80
2018-02-15T07:11:01.130Z,-2.70
2018-02-15T07:13:29.822Z,-2.70
2018-02-15T07:15:57.418Z,-2.60
2018-02-15T07:18:25.363Z,-2.50
2018-02-15T07:20:53.192Z,-2.50
2018-02-15T07:23:21.487Z,-2.30
2018-02-15T07:25:50.061Z,-2.40
2018-02-15T07:28:17.840Z,-2.60
2018-02-15T07:30:45.381Z,-2.50
2018-02-15T07:33:12.942Z,-2.40
2018-02-15T07:35:41.386Z,-2.30
2018-02-15T07:38:08.941Z,-2.30
2018-02-15T07:40:36.984Z,-2.30
2018-02-15T07:43:06.153Z,-2.30
2018-02-15T07:45:34.827Z,-2.30
2018-02-15T07:48:03.292Z,-2.30
2018-02-15T07:50:31.755Z,-2.20
2018-02-15T07:53:00.136Z,-2.00
2018-02-15T07:55:27.714Z,-2.00
2018-02-15T07:57:55.420Z,-2.00
2018-02-15T08:00:23.771Z,-1.70
2018-02-15T08:02:52.090Z,-1.50
2018-02-15T08:05:19.742Z,-1.50
2018-02-15T08:07:47.296Z,-1.40
2018-02-15T08:10:14.861Z,-1.30
2018-02-15T08:12:43.301Z,-1.30
2018-02-15T08:15:10.849Z,-1.30
2018-02-15T08:17:38.549Z,-1.20
2018-02-15T08:20:07.059Z,-1.10
2018-02-15T08:22:35.953Z,-1.10
2018-02-15T08:25:03.558Z,-1.10
2018-02-15T08:27:31.328Z,-1.00
2018-02-15T08:29:58.909Z,-0.90
2018-02-15T08:32:26.481Z,-0.80
2018-02-15T08:34:55.068Z,-0.70
2018-02-15T08:37:22.622Z,-0.60
2018-02-15T08:39:50.786Z,-0.40
2018-02-15T08:42:18.453Z,-0.40
2018-02-15T08:44:46.797Z,-0.40
2018-02-15T08:47:15.099Z,-0.40
2018-02-15T08:49:42.809Z,-0.40
2018-02-15T08:52:11.139Z,-0.20
2018-02-15T08:54:40.466Z,-0.10
2018-02-15T08:57:08.145Z,-0.20
2018-02-15T08:59:37.064Z,-0.10
2018-02-15T09:02:06.147Z,0.00
2018-02-15T09:04:35.593Z,0.10
2018-02-15T09:07:03.176Z,0.10
2018-02-15T09:09:30.760Z,0.40
2018-02-15T09:11:58.422Z,0.50
2018-02-15T09:14:25.953Z,0.40
2018-02-15T09:16:53.498Z,0.60
2018-02-15T09:19:21.188Z,0.60
2018-02-15T09:21:49.511Z,0.80
2018-02-15T09:24:17.198Z,0.80
2018-02-15T09:26:46.662Z,1.10
2018-02-15T09:29:17.857Z,1.10
2018-02-15T09:31:45.444Z,1.00
2018-02-15T09:34:13.859Z,1.30
2018-02-15T09:36:42.141Z,1.60
2018-02-15T09:39:09.684Z,1.60
2018-02-15T09:41:37.428Z,1.80
2018-02-15T09:44:05.495Z,2.00
2018-02-15T09:46:33.047Z,2.10
2018-02-15T09:49:01.598Z,2.40
2018-02-15T09:51:29.145Z,2.40
2018-02-15T09:53:56.689Z,2.40
2018-02-15T09:56:25.069Z,2.50
2018-02-15T09:58:52.708Z,2.60
2018-02-15T10:01:20.240Z,2.80
2018-02-15T10:03:47.960Z,2.90
2018-02-15T10:06:15.568Z,3.00
2018-02-15T10:08:43.114Z,3.20
2018-02-15T10:11:10.789Z,3.20
2018-02-15T10:13:38.525Z,3.00
2018-02-15T10:16:06.773Z,3.10
2018-02-15T10:18:35.201Z,3.30
2018-02-15T10:21:03.537Z,3.70
2018-02-15T10:23:32.034Z,3.60
2018-02-15T10:26:00.535Z,3.80
2018-02-15T10:28:28.107Z,3.80
2018-02-15T10:30:56.453Z,4.00
2018-02-15T10:33:24.372Z,4.00
2018-02-15T10:35:51.923Z,3.90
2018-02-15T10:38:19.468Z,4.00
2018-02-15T10:40:47.140Z,4.10
2018-02-15T10:43:14.873Z,4.30
2018-02-15T10:45:42.393Z,4.50
2018-02-15T10:48:11.768Z,4.40
2018-02-15T10:50:41.249Z,4.40
2018-02-15T10:53:09.753Z,4.50
2018-02-15T10:55:37.674Z,4.60
2018-02-15T10:58:05.953Z,4.80
2018-02-15T11:00:39.447Z,4.80
2018-02-15T11:03:13.079Z,4.80
2018-02-15T11:05:41.583Z,4.60
2018-02-15T11:08:09.125Z,4.70
2018-02-15T11:10:36.817Z,4.60
2018-02-15T11:13:06.157Z,4.30
2018-02-15T11:15:33.722Z,4.30
2018-02-15T11:18:01.290Z,4.40
2018-02-15T11:20:29.732Z,4.50
2018-02-15T11:22:57.289Z,4.40
2018-02-15T11:25:24.898Z,4.40
2018-02-15T11:27:53.177Z,4.60
2018-02-15T11:30:20.738Z,4.60
2018-02-15T11:32:49.062Z,4.50
2018-02-15T11:35:16.743Z,4.50
2018-02-15T11:37:45.096Z,4.60
2018-02-15T11:40:12.647Z,4.60
2018-02-15T11:42:41.080Z,4.60
2018-02-15T11:45:08.610Z,4.60
2018-02-15T11:47:36.996Z,4.50
2018-02-15T11:50:05.543Z,4.30
2018-02-15T11:52:34.116Z,4.20
2018-02-15T11:55:01.654Z,4.30
2018-02-15T11:57:30.100Z,4.20
2018-02-15T11:59:57.850Z,4.10
2018-02-15T12:02:25.498Z,4.00
2018-02-15T12:04:53.071Z,4.00
2018-02-15T12:07:20.672Z,3.80
2018-02-15T12:09:48.244Z,3.70
2018-02-15T12:12:15.958Z,3.80
2018-02-15T12:14:43.543Z,4.00
2018-02-15T12:17:11.102Z,3.90
2018-02-15T12:19:38.866Z,4.00
2018-02-15T12:22:08.124Z,4.20
2018-02-15T12:24:36.666Z,4.10
2018-02-15T12:27:04.876Z,4.10
2018-02-15T12:29:33.263Z,4.00
2018-02-15T12:32:00.805Z,4.10
2018-02-15T12:34:28.543Z,4.20
2018-02-15T12:36:56.089Z,4.30
2018-02-15T12:39:23.647Z,4.30
2018-02-15T12:41:51.241Z,4.30
2018-02-15T12:44:18.847Z,4.50
2018-02-15T12:46:46.436Z,4.50
2018-02-15T12:49:14.530Z,4.60
2018-02-15T12:51:42.089Z,4.50
2018-02-15T12:54:09.689Z,4.60
2018-02-15T12:56:37.332Z,4.60
2018-02-15T12:59:06.230Z,4.70
2018-02-15T13:01:33.873Z,4.70
2018-02-15T13:04:01.430Z,4.80
2018-02-15T13:06:29.107Z,4.70
2018-02-15T13:08:56.651Z,4.80
2018-02-15T13:11:24.256Z,4.80
2018-02-15T13:13:51.835Z,4.90
2018-02-15T13:16:31.219Z,5.00
2018-02-15T13:19:10.610Z,5.20
2018-02-15T13:21:38.222Z,5.30
2018-02-15T13:24:06.496Z,5.40
2018-02-15T13:26:35.906Z,5.40
2018-02-15T13:29:03.468Z,5.30
2018-02-15T13:31:31.332Z,5.20
2018-02-15T13:34:00.975Z,5.00
2018-02-15T13:36:28.536Z,5.00
2018-02-15T13:38:56.853Z,5.00
2018-02-15T13:41:24.493Z,4.90
2018-02-15T13:43:52.070Z,4.90
2018-02-15T13:46:19.596Z,4.80
2018-02-15T13:48:47.157Z,4.80
2018-02-15T13:51:15.502Z,4.60
2018-02-15T13:53:43.098Z,4.60
2018-02-15T13:56:10.630Z,4.50
2018-02-15T13:58:38.291Z,4.40
2018-02-15T14:01:06.668Z,4.40
2018-02-15T14:03:35.144Z,4.30
2018-02-15T14:06:02.700Z,4.10
2018-02-15T14:08:30.304Z,4.10
2018-02-15T14:10:57.921Z,3.90
2018-02-15T14:13:26.316Z,3.70
2018-02-15T14:15:53.861Z,3.50
2018-02-15T14:18:21.413Z,3.30
2018-02-15T14:20:49.003Z,3.00
2018-02-15T14:23:16.568Z,3.00
2018-02-15T14:25:44.153Z,3.00
2018-02-15T14:28:11.833Z,3.00
2018-02-15T14:30:39.540Z,3.10
2018-02-15T14:33:07.741Z,3.00
2018-02-15T14:35:36.012Z,3.00
2018-02-15T14:38:03.609Z,3.00
2018-02-15T14:40:31.187Z,2.90
2018-02-15T14:42:58.899Z,2.80
2018-02-15T14:45:27.212Z,2.90
2018-02-15T14:47:54.768Z,2.90
2018-02-15T14:50:22.482Z,3.00
2018-02-15T14:52:50.054Z,2.80
2018-02-15T14:55:17.614Z,2.60
2018-02-15T14:57:45.396Z,2.50
2018-02-15T15:00:12.979Z,2.40
2018-02-15T15:02:40.572Z,2.30
2018-02-15T15:05:09.000Z,2.00
2018-02-15T15:07:37.944Z,2.00
2018-02-15T15:10:05.808Z,2.10
2018-02-15T15:12:33.495Z,2.10
2018-02-15T15:15:01.067Z,2.10
2018-02-15T15:17:28.705Z,2.10
2018-02-15T15:19:57.190Z,2.10
2018-02-15T15:22:24.738Z,2.10
2018-02-15T15:24:52.310Z,2.10
2018-02-15T15:27:19.870Z,2.20
2018-02-15T15:29:47.541Z,2.10
2018-02-15T15:32:15.863Z,2.20
2018-02-15T15:34:44.696Z,2.20
2018-02-15T15:37:12.396Z,2.20
2018-02-15T15:39:40.007Z,2.30
2018-02-15T15:42:07.567Z,2.40
2018-02-15T15:44:36.395Z,2.40
2018-02-15T15:47:05.428Z,2.20
2018-02-15T15:49:32.990Z,2.20
2018-02-15T15:52:00.668Z,2.40
2018-02-15T15:54:28.994Z,2.40
2018-02-15T15:56:56.599Z,2.40
2018-02-15T15:59:24.332Z,2.40
2018-02-15T16:01:51.924Z,2.30
2018-02-15T16:04:21.412Z,2.30
2018-02-15T16:06:49.101Z,2.40
2018-02-15T16:09:17.405Z,2.40
2018-02-15T16:11:45.395Z,2.40
2018-02-15T16:14:13.135Z,2.50
2018-02-15T16:16:40.716Z,2.50
2018-02-15T16:19:09.320Z,2.50
2018-02-15T16:21:39.046Z,2.50
2018-02-15T16:24:10.169Z,2.50
2018-02-15T16:26:39.013Z,2.60
2018-02-15T16:29:08.099Z,2.50
2018-02-15T16:31:36.363Z,2.60
2018-02-15T16:34:04.109Z,2.70
2018-02-15T16:36:31.965Z,2.70
2018-02-15T16:39:01.645Z,2.70
2018-02-15T16:41:29.301Z,2.80
2018-02-15T16:43:57.046Z,2.70
2018-02-15T16:46:25.535Z,2.90
2018-02-15T16:48:53.899Z,2.90
2018-02-15T16:51:22.335Z,2.90
2018-02-15T16:53:49.967Z,2.90
2018-02-15T16:56:18.461Z,3.00
2018-02-15T16:58:46.214Z,2.90
2018-02-15T17:01:13.888Z,3.00
2018-02-15T17:03:42.125Z,2.90
2018-02-15T17:06:10.884Z,2.90
2018-02-15T17:08:38.753Z,3.00
2018-02-15T17:11:07.302Z,3.00
2018-02-15T17:13:35.905Z,3.10
2018-02-15T17:16:03.697Z,3.10
2018-02-15T17:18:31.295Z,3.10
2018-02-15T17:20:59.773Z,3.10
2018-02-15T17:23:27.368Z,3.10
2018-02-15T17:25:55.008Z,3.20
2018-02-15T17:28:22.960Z,3.20
2018-02-15T17:30:50.602Z,3.20
2018-02-15T17:33:21.198Z,2.80
2018-02-15T17:35:48.854Z,3.10
2018-02-15T17:38:16.453Z,3.10
2018-02-15T17:40:44.822Z,3.20
2018-02-15T17:43:13.257Z,3.30
2018-02-15T17:45:40.949Z,3.30
2018-02-15T17:48:09.352Z,3.30
2018-02-15T17:50:38.220Z,3.30
2018-02-15T17:53:06.842Z,3.30
2018-02-15T17:55:34.892Z,3.30
2018-02-15T17:58:03.394Z,3.20
2018-02-15T18:00:31.025Z,3.40
2018-02-15T18:02:58.710Z,3.60
2018-02-15T18:05:26.354Z,3.50
2018-02-15T18:07:54.014Z,3.50
2018-02-15T18:10:21.618Z,3.60
2018-02-15T18:12:49.307Z,3.60
2018-02-15T18:15:17.012Z,3.60
2018-02-15T18:17:44.679Z,3.60
2018-02-15T18:20:12.291Z,3.60
2018-02-15T18:22:40.813Z,3.70
2018-02-15T18:25:08.472Z,3.60
2018-02-15T18:27:36.885Z,3.70
2018-02-15T18:30:05.050Z,3.80
2018-02-15T18:32:32.693Z,3.80
2018-02-15T18:35:00.293Z,3.80
2018-02-15T18:37:27.860Z,3.90
2018-02-15T18:39:56.230Z,3.90
2018-02-15T18:42:26.233Z,3.90
2018-02-15T18:44:53.891Z,4.00
2018-02-15T18:47:21.562Z,3.90
2018-02-15T18:49:49.114Z,3.90
2018-02-15T18:52:16.919Z,4.00
2018-02-15T18:54:44.639Z,4.00
2018-02-15T18:57:12.239Z,4.00
2018-02-15T18:59:40.827Z,3.90
2018-02-15T19:02:08.439Z,3.90
2018-02-15T19:04:36.607Z,3.90
2018-02-15T19:07:05.019Z,4.00
2018-02-15T19:09:33.366Z,3.90
2018-02-15T19:12:00.907Z,3.90
2018-02-15T19:14:28.727Z,3.90
2018-02-15T19:16:56.259Z,3.90
2018-02-15T19:19:23.831Z,4.00
2018-02-15T19:21:51.490Z,4.10
2018-02-15T19:24:19.070Z,4.00
2018-02-15T19:26:47.391Z,4.00
2018-02-15T19:29:15.610Z,4.00
2018-02-15T19:31:43.249Z,4.10
2018-02-15T19:34:10.817Z,4.10
2018-02-15T19:36:38.773Z,4.10
2018-02-15T19:39:07.119Z,4.10
2018-02-15T19:41:35.388Z,4.10
2018-02-15T19:44:03.330Z,4.10
2018-02-15T19:46:30.939Z,4.20
2018-02-15T19:48:59.275Z,4.30
2018-02-15T19:51:26.846Z,4.20
2018-02-15T19:53:54.513Z,4.30
2018-02-15T19:56:22.278Z,4.20
2018-02-15T19:58:49.855Z,4.30
2018-02-15T20:01:17.468Z,4.20
2018-02-15T20:03:46.004Z,4.10
2018-02-15T20:06:13.668Z,4.10
2018-02-15T20:08:41.327Z,4.00
2018-02-15T20:11:08.921Z,4.00
2018-02-15T20:13:37.395Z,4.00
2018-02-15T20:16:05.916Z,4.00
2018-02-15T20:18:33.527Z,4.00
2018-02-15T20:21:01.146Z,4.00
2018-02-15T20:23:28.833Z,4.00
2018-02-15T20:26:02.781Z,4.10
2018-02-15T20:28:31.181Z,4.10
2018-02-15T20:30:58.829Z,4.10
2018-02-15T20:33:26.515Z,4.10
2018-02-15T20:35:54.969Z,4.20
2018-02-15T20:38:29.213Z,4.20
2018-02-15T20:40:56.752Z,4.20
2018-02-15T20:43:25.121Z,4.40
2018-02-15T20:45:52.963Z,4.40
2018-02-15T20:48:20.577Z,4.40
2018-02-15T20:50:54.482Z,4.50
2018-02-15T20:53:27.615Z,4.50
2018-02-15T20:55:55.142Z,4.40
2018-02-15T20:58:22.769Z,4.40
2018-02-15T21:00:50.321Z,4.50
2018-02-15T21:03:18.051Z,4.50
2018-02-15T21:05:45.609Z,4.60
2018-02-15T21:08:13.183Z,4.60
2018-02-15T21:10:41.569Z,4.60
2018-02-15T21:13:09.164Z,4.60
2018-02-15T21:15:37.020Z,4.70
2018-02-15T21:18:06.104Z,4.70
2018-02-15T21:20:33.652Z,4.70
2018-02-15T21:23:01.186Z,4.80
2018-02-15T21:25:29.756Z,4.90
2018-02-15T21:27:58.094Z,5.00
2018-02-15T21:30:25.690Z,5.00
2018-02-15T21:32:53.401Z,5.00
2018-02-15T21:35:20.941Z,5.10
2018-02-15T21:37:48.532Z,5.10
2018-02-15T21:40:17.102Z,5.10
2018-02-15T21:42:45.557Z,5.00
2018-02-15T21:45:13.124Z,5.20
2018-02-15T21:47:41.495Z,5.20
2018-02-15T21:50:09.055Z,5.20
2018-02-15T21:52:36.952Z,5.30
2018-02-15T21:55:05.307Z,5.40
2018-02-15T21:57:32.862Z,5.40
2018-02-15T22:00:00.447Z,5.40
2018-02-15T22:02:28.185Z,5.40
2018-02-15T22:04:55.757Z,5.50
2018-02-15T22:07:24.117Z,5.50
2018-02-15T22:09:52.552Z,5.60
2018-02-15T22:12:20.105Z,5.50
2018-02-15T22:14:47.650Z,5.60
2018-02-15T22:17:16.075Z,5.60
2018-02-15T22:19:43.605Z,5.60
2018-02-15T22:22:11.832Z,5.70
2018-02-15T22:24:40.592Z,5.70
2018-02-15T22:27:09.101Z,5.70
2018-02-15T22:29:38.108Z,5.70
2018-02-15T22:32:07.628Z,5.70
2018-02-15T22:34:36.056Z,5.70
2018-02-15T22:37:03.617Z,5.60
2018-02-15T22:39:32.123Z,5.80
2018-02-15T22:42:01.556Z,5.80
2018-02-15T22:44:29.869Z,5.90
2018-02-15T22:46:57.529Z,5.80
2018-02-15T22:49:25.243Z,5.90
2018-02-15T22:51:53.555Z,5.90
2018-02-15T22:54:23.267Z,5.90
2018-02-15T22:56:51.571Z,6.00
2018-02-15T22:59:20.117Z,6.00
2018-02-15T23:01:47.788Z,6.00
2018-02-15T23:04:15.390Z,6.00
2018-02-15T23:06:43.113Z,6.10
2018-02-15T23:09:11.542Z,5.90
2018-02-15T23:11:39.957Z,6.10
2018-02-15T23:14:07.524Z,6.10
2018-02-15T23:16:36.836Z,6.10
2018-02-15T23:19:04.966Z,6.10
2018-02-15T23:21:32.518Z,6.10
2018-02-15T23:24:00.962Z,6.00
2018-02-15T23:26:30.717Z,6.00
2018-02-15T23:28:58.326Z,6.00
2018-02-15T23:31:26.848Z,6.00
2018-02-15T23:33:54.392Z,6.00
2018-02-15T23:36:21.918Z,6.00
2018-02-15T23:38:49.490Z,5.90
2018-02-15T23:41:17.051Z,6.00
2018-02-15T23:43:45.381Z,5.90
2018-02-15T23:46:13.057Z,5.90
2018-02-15T23:48:40.798Z,6.00
2018-02-15T23:51:08.526Z,6.00
2018-02-15T23:53:37.742Z,5.90
2018-02-15T23:56:05.859Z,5.90
2018-02-15T23:58:33.407Z,6.00
